Kezdőlap
METAR-TAF:

METAR-TAF

Repülőterek :

Greenwood County Airport

Greenwood, Dél-Karolina, Amerikai Egyesült Államok

földrajzi szélesség: 34-14-50N, földrajzi hosszúság: 082-09-17W, magasság: 192 m

Jelenlegi meteorológiai megfigyelések

A jelentés 1 órával és 1 perccel ezelõtt készült, 08:56 UTC
Szélcsend
Hőmérséklet 18°C
Páratartalom 94%
Légköri nyomás 1016 hPa
Látótávolság: 12.9 km
Derült ég

METAR: KGRD 140856Z AUTO 00000KT 8SM CLR 18/17 A2999 RMK AO2 SLP963 T01780172 58002

Idő: 05:57 (09:57 UTC)


TAF: hiányzik

Meteorológiai megfigyelések és előrejelzések több, mint 4000 repülőtéren (METAR és TAF jelentéseket).

A térképen piros és sárga pontok jelzik az elérhető meteorológiai állomásokat.

Mozgassa az egeret a pont fölött, hogy megjelenjen az állomás neve.

Azután kattintson az időjárási megfigyelések és előrejelzések megtekintéséhez.

A térkép megváltoztatása: kattintson a fekete keresztel jelölt zöld gombra ráközelítéshez, a vonallal jelölt zöld gombra távolításhoz, vagy a zöld nyilakra a szomszédos térképek eléréséhez.


METAR-TAF: